<?xml version="1.0" encoding="UTF-8" standalone="no" ?>
<gpx xmlns="http://www.topografix.com/GPX/1/1" xmlns:xsi="http://www.w3.org/2001/XMLSchema-instance" xsi:schemaLocation="http://www.topografix.com/GPX/1/1 http://www.topografix.com/GPX/1/1/gpx.xsd" version="1.1" creator="VisuGPX - https://www.visugpx.com">
  <metadata>
    <name>FINLANDE - SKI DE FOND - IVALO - Initiation</name>
    <desc><![CDATA[Un aller-retour de l\'hôtel Ivalo en passant par la piste moto-neige sur la rivière Ivalojoki puis la piste de ski de fond \"rivière Ivalojoki Jänkkävaara Yhdyslatu\"]]></desc>
  </metadata>
  <trk>
    <name><![CDATA[ACTIVE LOG 004]]></name>
    <trkseg>
      <trkpt lat="68.64959" lon="27.54182">
        <ele>127.992554</ele>
        <time>2014-03-17T07:22:00Z</time>
      </trkpt>
      <trkpt lat="68.64959" lon="27.54181">
        <ele>127.992554</ele>
        <time>2014-03-17T07:22:01Z</time>
      </trkpt>
      <trkpt lat="68.64959" lon="27.5418">
        <ele>127.511963</ele>
        <time>2014-03-17T07:22:02Z</time>
      </trkpt>
      <trkpt lat="68.6496" lon="27.54181">
        <ele>126.069946</ele>
        <time>2014-03-17T07:22:10Z</time>
      </trkpt>
      <trkpt lat="68.6496" lon="27.54179">
        <ele>127.511963</ele>
        <time>2014-03-17T07:22:24Z</time>
      </trkpt>
      <trkpt lat="68.6496" lon="27.54178">
        <ele>123.186157</ele>
        <time>2014-03-17T07:22:28Z</time>
      </trkpt>
      <trkpt lat="68.64961" lon="27.5418">
        <ele>129.915283</ele>
        <time>2014-03-17T07:22:29Z</time>
      </trkpt>
      <trkpt lat="68.64961" lon="27.54182">
        <ele>126.550659</ele>
        <time>2014-03-17T07:22:30Z</time>
      </trkpt>
      <trkpt lat="68.6496" lon="27.54169">
        <ele>127.511963</ele>
        <time>2014-03-17T07:22:54Z</time>
      </trkpt>
      <trkpt lat="68.64961" lon="27.54172">
        <ele>127.031372</ele>
        <time>2014-03-17T07:23:01Z</time>
      </trkpt>
      <trkpt lat="68.64964" lon="27.54176">
        <ele>126.550659</ele>
        <time>2014-03-17T07:23:25Z</time>
      </trkpt>
      <trkpt lat="68.64957" lon="27.54196">
        <ele>126.069946</ele>
        <time>2014-03-17T07:23:45Z</time>
      </trkpt>
      <trkpt lat="68.64947" lon="27.54174">
        <ele>126.550659</ele>
        <time>2014-03-17T07:24:00Z</time>
      </trkpt>
      <trkpt lat="68.64935" lon="27.5415">
        <ele>127.031372</ele>
        <time>2014-03-17T07:24:15Z</time>
      </trkpt>
      <trkpt lat="68.64933" lon="27.5414">
        <ele>126.069946</ele>
        <time>2014-03-17T07:24:28Z</time>
      </trkpt>
      <trkpt lat="68.64929" lon="27.54115">
        <ele>122.705444</ele>
        <time>2014-03-17T07:24:39Z</time>
      </trkpt>
      <trkpt lat="68.64928" lon="27.54078">
        <ele>121.26355</ele>
        <time>2014-03-17T07:24:59Z</time>
      </trkpt>
      <trkpt lat="68.64928" lon="27.54076">
        <ele>121.26355</ele>
        <time>2014-03-17T07:25:26Z</time>
      </trkpt>
      <trkpt lat="68.64928" lon="27.54068">
        <ele>120.782837</ele>
        <time>2014-03-17T07:25:49Z</time>
      </trkpt>
      <trkpt lat="68.64927" lon="27.54069">
        <ele>121.744141</ele>
        <time>2014-03-17T07:26:19Z</time>
      </trkpt>
      <trkpt lat="68.64927" lon="27.54069">
        <ele>118.860107</ele>
        <time>2014-03-17T07:26:21Z</time>
      </trkpt>
      <trkpt lat="68.64927" lon="27.5407">
        <ele>122.705444</ele>
        <time>2014-03-17T07:26:23Z</time>
      </trkpt>
      <trkpt lat="68.64926" lon="27.5407">
        <ele>118.860107</ele>
        <time>2014-03-17T07:26:29Z</time>
      </trkpt>
      <trkpt lat="68.64926" lon="27.5407">
        <ele>120.302124</ele>
        <time>2014-03-17T07:26:30Z</time>
      </trkpt>
      <trkpt lat="68.64927" lon="27.54069">
        <ele>121.26355</ele>
        <time>2014-03-17T07:26:57Z</time>
      </trkpt>
      <trkpt lat="68.64926" lon="27.54073">
        <ele>121.744141</ele>
        <time>2014-03-17T07:27:38Z</time>
      </trkpt>
      <trkpt lat="68.64927" lon="27.54079">
        <ele>121.26355</ele>
        <time>2014-03-17T07:27:53Z</time>
      </trkpt>
      <trkpt lat="68.64928" lon="27.54074">
        <ele>121.744141</ele>
        <time>2014-03-17T07:28:14Z</time>
      </trkpt>
      <trkpt lat="68.64928" lon="27.54072">
        <ele>122.705444</ele>
        <time>2014-03-17T07:28:43Z</time>
      </trkpt>
      <trkpt lat="68.64928" lon="27.54073">
        <ele>119.34082</ele>
        <time>2014-03-17T07:28:49Z</time>
      </trkpt>
      <trkpt lat="68.64928" lon="27.54072">
        <ele>124.147339</ele>
        <time>2014-03-17T07:28:51Z</time>
      </trkpt>
      <trkpt lat="68.64928" lon="27.54068">
        <ele>122.224731</ele>
        <time>2014-03-17T07:29:18Z</time>
      </trkpt>
      <trkpt lat="68.64927" lon="27.54066">
        <ele>121.26355</ele>
        <time>2014-03-17T07:30:58Z</time>
      </trkpt>
      <trkpt lat="68.6493" lon="27.54048">
        <ele>121.26355</ele>
        <time>2014-03-17T07:31:10Z</time>
      </trkpt>
      <trkpt lat="68.64938" lon="27.5402">
        <ele>121.26355</ele>
        <time>2014-03-17T07:31:32Z</time>
      </trkpt>
      <trkpt lat="68.6494" lon="27.54017">
        <ele>121.744141</ele>
        <time>2014-03-17T07:31:34Z</time>
      </trkpt>
      <trkpt lat="68.64961" lon="27.53983">
        <ele>121.744141</ele>
        <time>2014-03-17T07:31:58Z</time>
      </trkpt>
      <trkpt lat="68.64977" lon="27.53966">
        <ele>121.744141</ele>
        <time>2014-03-17T07:32:20Z</time>
      </trkpt>
      <trkpt lat="68.64996" lon="27.53941">
        <ele>120.782837</ele>
        <time>2014-03-17T07:32:41Z</time>
      </trkpt>
      <trkpt lat="68.65018" lon="27.53902">
        <ele>121.26355</ele>
        <time>2014-03-17T07:33:04Z</time>
      </trkpt>
      <trkpt lat="68.65042" lon="27.53848">
        <ele>121.26355</ele>
        <time>2014-03-17T07:33:28Z</time>
      </trkpt>
      <trkpt lat="68.65067" lon="27.53803">
        <ele>121.26355</ele>
        <time>2014-03-17T07:33:52Z</time>
      </trkpt>
      <trkpt lat="68.6508" lon="27.53775">
        <ele>121.26355</ele>
        <time>2014-03-17T07:34:13Z</time>
      </trkpt>
      <trkpt lat="68.6508" lon="27.53776">
        <ele>121.26355</ele>
        <time>2014-03-17T07:34:42Z</time>
      </trkpt>
      <trkpt lat="68.6508" lon="27.5377">
        <ele>121.26355</ele>
        <time>2014-03-17T07:35:31Z</time>
      </trkpt>
      <trkpt lat="68.65092" lon="27.53746">
        <ele>121.744141</ele>
        <time>2014-03-17T07:35:57Z</time>
      </trkpt>
      <trkpt lat="68.65098" lon="27.53733">
        <ele>121.26355</ele>
        <time>2014-03-17T07:36:14Z</time>
      </trkpt>
      <trkpt lat="68.65101" lon="27.53723">
        <ele>121.26355</ele>
        <time>2014-03-17T07:36:37Z</time>
      </trkpt>
      <trkpt lat="68.65112" lon="27.53697">
        <ele>121.744141</ele>
        <time>2014-03-17T07:36:57Z</time>
      </trkpt>
      <trkpt lat="68.65131" lon="27.5365">
        <ele>121.744141</ele>
        <time>2014-03-17T07:37:25Z</time>
      </trkpt>
      <trkpt lat="68.65136" lon="27.53637">
        <ele>121.26355</ele>
        <time>2014-03-17T07:37:45Z</time>
      </trkpt>
      <trkpt lat="68.65142" lon="27.53617">
        <ele>121.744141</ele>
        <time>2014-03-17T07:38:00Z</time>
      </trkpt>
      <trkpt lat="68.6516" lon="27.53557">
        <ele>121.744141</ele>
        <time>2014-03-17T07:38:27Z</time>
      </trkpt>
      <trkpt lat="68.65179" lon="27.53492">
        <ele>122.224731</ele>
        <time>2014-03-17T07:38:51Z</time>
      </trkpt>
      <trkpt lat="68.65181" lon="27.53483">
        <ele>121.744141</ele>
        <time>2014-03-17T07:39:08Z</time>
      </trkpt>
      <trkpt lat="68.6518" lon="27.53479">
        <ele>122.224731</ele>
        <time>2014-03-17T07:39:22Z</time>
      </trkpt>
      <trkpt lat="68.65182" lon="27.53466">
        <ele>122.224731</ele>
        <time>2014-03-17T07:39:41Z</time>
      </trkpt>
      <trkpt lat="68.65197" lon="27.53404">
        <ele>122.705444</ele>
        <time>2014-03-17T07:40:10Z</time>
      </trkpt>
      <trkpt lat="68.65202" lon="27.53387">
        <ele>122.705444</ele>
        <time>2014-03-17T07:40:26Z</time>
      </trkpt>
      <trkpt lat="68.65209" lon="27.53361">
        <ele>122.224731</ele>
        <time>2014-03-17T07:40:50Z</time>
      </trkpt>
      <trkpt lat="68.65218" lon="27.5332">
        <ele>122.705444</ele>
        <time>2014-03-17T07:41:09Z</time>
      </trkpt>
      <trkpt lat="68.65233" lon="27.5326">
        <ele>122.224731</ele>
        <time>2014-03-17T07:41:36Z</time>
      </trkpt>
      <trkpt lat="68.65237" lon="27.5324">
        <ele>123.186157</ele>
        <time>2014-03-17T07:41:54Z</time>
      </trkpt>
      <trkpt lat="68.65245" lon="27.53211">
        <ele>122.705444</ele>
        <time>2014-03-17T07:42:22Z</time>
      </trkpt>
      <trkpt lat="68.65259" lon="27.53156">
        <ele>123.186157</ele>
        <time>2014-03-17T07:42:48Z</time>
      </trkpt>
      <trkpt lat="68.65268" lon="27.53119">
        <ele>122.705444</ele>
        <time>2014-03-17T07:43:10Z</time>
      </trkpt>
      <trkpt lat="68.65284" lon="27.53055">
        <ele>123.186157</ele>
        <time>2014-03-17T07:43:38Z</time>
      </trkpt>
      <trkpt lat="68.65298" lon="27.52998">
        <ele>123.186157</ele>
        <time>2014-03-17T07:44:03Z</time>
      </trkpt>
      <trkpt lat="68.65305" lon="27.52972">
        <ele>122.705444</ele>
        <time>2014-03-17T07:44:20Z</time>
      </trkpt>
      <trkpt lat="68.6532" lon="27.5291">
        <ele>123.186157</ele>
        <time>2014-03-17T07:44:46Z</time>
      </trkpt>
      <trkpt lat="68.65328" lon="27.52876">
        <ele>122.705444</ele>
        <time>2014-03-17T07:45:07Z</time>
      </trkpt>
      <trkpt lat="68.65334" lon="27.52852">
        <ele>122.224731</ele>
        <time>2014-03-17T07:45:27Z</time>
      </trkpt>
      <trkpt lat="68.65343" lon="27.52818">
        <ele>122.224731</ele>
        <time>2014-03-17T07:45:50Z</time>
      </trkpt>
      <trkpt lat="68.65361" lon="27.5275">
        <ele>122.224731</ele>
        <time>2014-03-17T07:46:18Z</time>
      </trkpt>
      <trkpt lat="68.65385" lon="27.52668">
        <ele>122.705444</ele>
        <time>2014-03-17T07:46:48Z</time>
      </trkpt>
      <trkpt lat="68.65399" lon="27.52619">
        <ele>122.705444</ele>
        <time>2014-03-17T07:47:11Z</time>
      </trkpt>
      <trkpt lat="68.65412" lon="27.52575">
        <ele>123.186157</ele>
        <time>2014-03-17T07:47:29Z</time>
      </trkpt>
      <trkpt lat="68.65417" lon="27.52551">
        <ele>122.224731</ele>
        <time>2014-03-17T07:47:48Z</time>
      </trkpt>
      <trkpt lat="68.65418" lon="27.5255">
        <ele>123.666748</ele>
        <time>2014-03-17T07:47:53Z</time>
      </trkpt>
      <trkpt lat="68.65422" lon="27.52533">
        <ele>123.186157</ele>
        <time>2014-03-17T07:48:09Z</time>
      </trkpt>
      <trkpt lat="68.65432" lon="27.52499">
        <ele>123.666748</ele>
        <time>2014-03-17T07:48:29Z</time>
      </trkpt>
      <trkpt lat="68.65435" lon="27.52492">
        <ele>122.705444</ele>
        <time>2014-03-17T07:48:50Z</time>
      </trkpt>
      <trkpt lat="68.65445" lon="27.5247">
        <ele>123.186157</ele>
        <time>2014-03-17T07:49:09Z</time>
      </trkpt>
      <trkpt lat="68.65464" lon="27.52415">
        <ele>122.705444</ele>
        <time>2014-03-17T07:49:34Z</time>
      </trkpt>
      <trkpt lat="68.65483" lon="27.52361">
        <ele>122.224731</ele>
        <time>2014-03-17T07:49:58Z</time>
      </trkpt>
      <trkpt lat="68.65504" lon="27.52305">
        <ele>122.224731</ele>
        <time>2014-03-17T07:50:22Z</time>
      </trkpt>
      <trkpt lat="68.65506" lon="27.52301">
        <ele>122.705444</ele>
        <time>2014-03-17T07:50:41Z</time>
      </trkpt>
      <trkpt lat="68.65506" lon="27.523">
        <ele>118.860107</ele>
        <time>2014-03-17T07:50:48Z</time>
      </trkpt>
      <trkpt lat="68.65506" lon="27.523">
        <ele>125.108765</ele>
        <time>2014-03-17T07:50:49Z</time>
      </trkpt>
      <trkpt lat="68.65506" lon="27.52301">
        <ele>122.224731</ele>
        <time>2014-03-17T07:50:51Z</time>
      </trkpt>
      <trkpt lat="68.65506" lon="27.52303">
        <ele>122.224731</ele>
        <time>2014-03-17T07:51:43Z</time>
      </trkpt>
      <trkpt lat="68.65517" lon="27.52275">
        <ele>121.744141</ele>
        <time>2014-03-17T07:52:05Z</time>
      </trkpt>
      <trkpt lat="68.65536" lon="27.52231">
        <ele>122.224731</ele>
        <time>2014-03-17T07:52:31Z</time>
      </trkpt>
      <trkpt lat="68.65556" lon="27.52193">
        <ele>122.705444</ele>
        <time>2014-03-17T07:52:57Z</time>
      </trkpt>
      <trkpt lat="68.65567" lon="27.5217">
        <ele>122.224731</ele>
        <time>2014-03-17T07:53:20Z</time>
      </trkpt>
      <trkpt lat="68.65577" lon="27.52152">
        <ele>123.186157</ele>
        <time>2014-03-17T07:53:38Z</time>
      </trkpt>
      <trkpt lat="68.656" lon="27.5211">
        <ele>123.186157</ele>
        <time>2014-03-17T07:54:05Z</time>
      </trkpt>
      <trkpt lat="68.6562" lon="27.52076">
        <ele>122.705444</ele>
        <time>2014-03-17T07:54:30Z</time>
      </trkpt>
      <trkpt lat="68.65648" lon="27.52038">
        <ele>123.186157</ele>
        <time>2014-03-17T07:55:00Z</time>
      </trkpt>
      <trkpt lat="68.65671" lon="27.52013">
        <ele>123.186157</ele>
        <time>2014-03-17T07:55:25Z</time>
      </trkpt>
      <trkpt lat="68.65697" lon="27.51988">
        <ele>122.705444</ele>
        <time>2014-03-17T07:55:53Z</time>
      </trkpt>
      <trkpt lat="68.65709" lon="27.51977">
        <ele>122.224731</ele>
        <time>2014-03-17T07:56:15Z</time>
      </trkpt>
      <trkpt lat="68.65716" lon="27.51964">
        <ele>122.705444</ele>
        <time>2014-03-17T07:56:36Z</time>
      </trkpt>
      <trkpt lat="68.65717" lon="27.51957">
        <ele>122.224731</ele>
        <time>2014-03-17T07:56:53Z</time>
      </trkpt>
      <trkpt lat="68.65735" lon="27.51912">
        <ele>122.705444</ele>
        <time>2014-03-17T07:57:17Z</time>
      </trkpt>
      <trkpt lat="68.65742" lon="27.51899">
        <ele>123.186157</ele>
        <time>2014-03-17T07:57:38Z</time>
      </trkpt>
      <trkpt lat="68.65744" lon="27.51867">
        <ele>122.705444</ele>
        <time>2014-03-17T07:57:54Z</time>
      </trkpt>
      <trkpt lat="68.65737" lon="27.51799">
        <ele>122.705444</ele>
        <time>2014-03-17T07:58:21Z</time>
      </trkpt>
      <trkpt lat="68.65738" lon="27.51794">
        <ele>123.186157</ele>
        <time>2014-03-17T07:58:23Z</time>
      </trkpt>
      <trkpt lat="68.65741" lon="27.5173">
        <ele>122.705444</ele>
        <time>2014-03-17T07:58:48Z</time>
      </trkpt>
      <trkpt lat="68.65742" lon="27.51705">
        <ele>126.069946</ele>
        <time>2014-03-17T07:59:03Z</time>
      </trkpt>
      <trkpt lat="68.65744" lon="27.51679">
        <ele>126.550659</ele>
        <time>2014-03-17T07:59:22Z</time>
      </trkpt>
      <trkpt lat="68.65752" lon="27.51628">
        <ele>126.069946</ele>
        <time>2014-03-17T07:59:43Z</time>
      </trkpt>
      <trkpt lat="68.65754" lon="27.51618">
        <ele>126.069946</ele>
        <time>2014-03-17T08:00:05Z</time>
      </trkpt>
      <trkpt lat="68.65754" lon="27.51619">
        <ele>122.705444</ele>
        <time>2014-03-17T08:00:07Z</time>
      </trkpt>
      <trkpt lat="68.65754" lon="27.51619">
        <ele>125.589355</ele>
        <time>2014-03-17T08:00:09Z</time>
      </trkpt>
      <trkpt lat="68.65755" lon="27.51617">
        <ele>125.589355</ele>
        <time>2014-03-17T08:00:26Z</time>
      </trkpt>
      <trkpt lat="68.65756" lon="27.51618">
        <ele>121.744141</ele>
        <time>2014-03-17T08:01:06Z</time>
      </trkpt>
      <trkpt lat="68.65756" lon="27.51618">
        <ele>127.992554</ele>
        <time>2014-03-17T08:01:07Z</time>
      </trkpt>
      <trkpt lat="68.65756" lon="27.51618">
        <ele>124.628052</ele>
        <time>2014-03-17T08:01:08Z</time>
      </trkpt>
      <trkpt lat="68.65756" lon="27.51617">
        <ele>126.069946</ele>
        <time>2014-03-17T08:01:14Z</time>
      </trkpt>
      <trkpt lat="68.65766" lon="27.5159">
        <ele>125.108765</ele>
        <time>2014-03-17T08:01:35Z</time>
      </trkpt>
      <trkpt lat="68.65784" lon="27.51524">
        <ele>125.589355</ele>
        <time>2014-03-17T08:02:01Z</time>
      </trkpt>
      <trkpt lat="68.65792" lon="27.51477">
        <ele>125.589355</ele>
        <time>2014-03-17T08:02:24Z</time>
      </trkpt>
      <trkpt lat="68.65791" lon="27.51477">
        <ele>126.069946</ele>
        <time>2014-03-17T08:03:30Z</time>
      </trkpt>
      <trkpt lat="68.65791" lon="27.51476">
        <ele>122.224731</ele>
        <time>2014-03-17T08:03:59Z</time>
      </trkpt>
      <trkpt lat="68.65791" lon="27.51476">
        <ele>130.395996</ele>
        <time>2014-03-17T08:04:00Z</time>
      </trkpt>
      <trkpt lat="68.65791" lon="27.51476">
        <ele>126.550659</ele>
        <time>2014-03-17T08:04:01Z</time>
      </trkpt>
      <trkpt lat="68.65791" lon="27.51476">
        <ele>123.186157</ele>
        <time>2014-03-17T08:04:06Z</time>
      </trkpt>
      <trkpt lat="68.65792" lon="27.51476">
        <ele>128.954102</ele>
        <time>2014-03-17T08:04:07Z</time>
      </trkpt>
      <trkpt lat="68.65792" lon="27.51476">
        <ele>126.069946</ele>
        <time>2014-03-17T08:04:09Z</time>
      </trkpt>
      <trkpt lat="68.65792" lon="27.51476">
        <ele>126.069946</ele>
        <time>2014-03-17T08:04:10Z</time>
      </trkpt>
      <trkpt lat="68.65793" lon="27.51472">
        <ele>126.550659</ele>
        <time>2014-03-17T08:04:32Z</time>
      </trkpt>
      <trkpt lat="68.65808" lon="27.51436">
        <ele>127.031372</ele>
        <time>2014-03-17T08:04:53Z</time>
      </trkpt>
      <trkpt lat="68.65845" lon="27.51432">
        <ele>126.069946</ele>
        <time>2014-03-17T08:05:22Z</time>
      </trkpt>
      <trkpt lat="68.65867" lon="27.51434">
        <ele>126.550659</ele>
        <time>2014-03-17T08:05:46Z</time>
      </trkpt>
      <trkpt lat="68.65873" lon="27.51433">
        <ele>127.031372</ele>
        <time>2014-03-17T08:06:01Z</time>
      </trkpt>
      <trkpt lat="68.65891" lon="27.51423">
        <ele>127.031372</ele>
        <time>2014-03-17T08:06:30Z</time>
      </trkpt>
      <trkpt lat="68.65937" lon="27.51417">
        <ele>127.031372</ele>
        <time>2014-03-17T08:06:59Z</time>
      </trkpt>
      <trkpt lat="68.6597" lon="27.5141">
        <ele>127.511963</ele>
        <time>2014-03-17T08:07:22Z</time>
      </trkpt>
      <trkpt lat="68.65999" lon="27.51405">
        <ele>127.992554</ele>
        <time>2014-03-17T08:07:46Z</time>
      </trkpt>
      <trkpt lat="68.66032" lon="27.51396">
        <ele>127.511963</ele>
        <time>2014-03-17T08:08:12Z</time>
      </trkpt>
      <trkpt lat="68.66058" lon="27.51385">
        <ele>127.992554</ele>
        <time>2014-03-17T08:08:36Z</time>
      </trkpt>
      <trkpt lat="68.6609" lon="27.51382">
        <ele>128.473389</ele>
        <time>2014-03-17T08:09:02Z</time>
      </trkpt>
      <trkpt lat="68.66122" lon="27.51371">
        <ele>128.473389</ele>
        <time>2014-03-17T08:09:27Z</time>
      </trkpt>
      <trkpt lat="68.6615" lon="27.51359">
        <ele>128.473389</ele>
        <time>2014-03-17T08:09:51Z</time>
      </trkpt>
      <trkpt lat="68.6617" lon="27.51357">
        <ele>127.031372</ele>
        <time>2014-03-17T08:10:07Z</time>
      </trkpt>
      <trkpt lat="68.66172" lon="27.51355">
        <ele>127.511963</ele>
        <time>2014-03-17T08:10:30Z</time>
      </trkpt>
      <trkpt lat="68.66172" lon="27.51354">
        <ele>128.954102</ele>
        <time>2014-03-17T08:10:32Z</time>
      </trkpt>
      <trkpt lat="68.66173" lon="27.51352">
        <ele>127.992554</ele>
        <time>2014-03-17T08:10:58Z</time>
      </trkpt>
      <trkpt lat="68.66175" lon="27.51355">
        <ele>128.473389</ele>
        <time>2014-03-17T08:11:37Z</time>
      </trkpt>
      <trkpt lat="68.66183" lon="27.51358">
        <ele>127.992554</ele>
        <time>2014-03-17T08:11:57Z</time>
      </trkpt>
      <trkpt lat="68.66214" lon="27.51349">
        <ele>128.954102</ele>
        <time>2014-03-17T08:12:21Z</time>
      </trkpt>
      <trkpt lat="68.66221" lon="27.51341">
        <ele>128.954102</ele>
        <time>2014-03-17T08:12:43Z</time>
      </trkpt>
      <trkpt lat="68.66222" lon="27.5134">
        <ele>127.511963</ele>
        <time>2014-03-17T08:13:01Z</time>
      </trkpt>
      <trkpt lat="68.66222" lon="27.51339">
        <ele>132.318604</ele>
        <time>2014-03-17T08:13:03Z</time>
      </trkpt>
      <trkpt lat="68.66222" lon="27.51339">
        <ele>128.954102</ele>
        <time>2014-03-17T08:13:04Z</time>
      </trkpt>
      <trkpt lat="68.66228" lon="27.51347">
        <ele>128.473389</ele>
        <time>2014-03-17T08:13:21Z</time>
      </trkpt>
      <trkpt lat="68.6623" lon="27.51351">
        <ele>128.473389</ele>
        <time>2014-03-17T08:13:40Z</time>
      </trkpt>
      <trkpt lat="68.66237" lon="27.51335">
        <ele>128.473389</ele>
        <time>2014-03-17T08:13:57Z</time>
      </trkpt>
      <trkpt lat="68.66268" lon="27.51354">
        <ele>127.511963</ele>
        <time>2014-03-17T08:14:19Z</time>
      </trkpt>
      <trkpt lat="68.6631" lon="27.51387">
        <ele>128.954102</ele>
        <time>2014-03-17T08:14:47Z</time>
      </trkpt>
      <trkpt lat="68.66323" lon="27.51403">
        <ele>128.954102</ele>
        <time>2014-03-17T08:15:06Z</time>
      </trkpt>
      <trkpt lat="68.66324" lon="27.51406">
        <ele>128.954102</ele>
        <time>2014-03-17T08:15:07Z</time>
      </trkpt>
      <trkpt lat="68.66325" lon="27.51416">
        <ele>127.031372</ele>
        <time>2014-03-17T08:15:11Z</time>
      </trkpt>
      <trkpt lat="68.66326" lon="27.51435">
        <ele>127.511963</ele>
        <time>2014-03-17T08:15:27Z</time>
      </trkpt>
      <trkpt lat="68.66325" lon="27.51439">
        <ele>127.511963</ele>
        <time>2014-03-17T08:15:29Z</time>
      </trkpt>
      <trkpt lat="68.66321" lon="27.51495">
        <ele>128.954102</ele>
        <time>2014-03-17T08:15:49Z</time>
      </trkpt>
      <trkpt lat="68.66321" lon="27.515">
        <ele>129.434692</ele>
        <time>2014-03-17T08:15:51Z</time>
      </trkpt>
      <trkpt lat="68.66333" lon="27.51576">
        <ele>130.876709</ele>
        <time>2014-03-17T08:16:15Z</time>
      </trkpt>
      <trkpt lat="68.66339" lon="27.51608">
        <ele>131.3573</ele>
        <time>2014-03-17T08:16:32Z</time>
      </trkpt>
      <trkpt lat="68.66351" lon="27.51663">
        <ele>131.3573</ele>
        <time>2014-03-17T08:16:55Z</time>
      </trkpt>
      <trkpt lat="68.66351" lon="27.51666">
        <ele>130.876709</ele>
        <time>2014-03-17T08:17:29Z</time>
      </trkpt>
      <trkpt lat="68.66351" lon="27.51663">
        <ele>130.876709</ele>
        <time>2014-03-17T08:18:13Z</time>
      </trkpt>
      <trkpt lat="68.66353" lon="27.51668">
        <ele>130.876709</ele>
        <time>2014-03-17T08:18:45Z</time>
      </trkpt>
      <trkpt lat="68.66353" lon="27.51668">
        <ele>130.395996</ele>
        <time>2014-03-17T08:18:51Z</time>
      </trkpt>
      <trkpt lat="68.66353" lon="27.51667">
        <ele>127.511963</ele>
        <time>2014-03-17T08:18:58Z</time>
      </trkpt>
      <trkpt lat="68.66353" lon="27.51667">
        <ele>131.837891</ele>
        <time>2014-03-17T08:18:59Z</time>
      </trkpt>
      <trkpt lat="68.66356" lon="27.51697">
        <ele>131.3573</ele>
        <time>2014-03-17T08:19:17Z</time>
      </trkpt>
      <trkpt lat="68.66374" lon="27.51772">
        <ele>131.837891</ele>
        <time>2014-03-17T08:19:41Z</time>
      </trkpt>
      <trkpt lat="68.66389" lon="27.51775">
        <ele>131.837891</ele>
        <time>2014-03-17T08:19:59Z</time>
      </trkpt>
      <trkpt lat="68.66412" lon="27.51772">
        <ele>131.3573</ele>
        <time>2014-03-17T08:20:19Z</time>
      </trkpt>
      <trkpt lat="68.66443" lon="27.51792">
        <ele>128.954102</ele>
        <time>2014-03-17T08:20:41Z</time>
      </trkpt>
      <trkpt lat="68.66476" lon="27.51818">
        <ele>128.473389</ele>
        <time>2014-03-17T08:21:02Z</time>
      </trkpt>
      <trkpt lat="68.66502" lon="27.51826">
        <ele>128.954102</ele>
        <time>2014-03-17T08:21:21Z</time>
      </trkpt>
      <trkpt lat="68.66543" lon="27.51838">
        <ele>129.434692</ele>
        <time>2014-03-17T08:21:47Z</time>
      </trkpt>
      <trkpt lat="68.6655" lon="27.51845">
        <ele>129.915283</ele>
        <time>2014-03-17T08:22:09Z</time>
      </trkpt>
      <trkpt lat="68.66552" lon="27.51846">
        <ele>128.954102</ele>
        <time>2014-03-17T08:22:41Z</time>
      </trkpt>
      <trkpt lat="68.66555" lon="27.51849">
        <ele>129.434692</ele>
        <time>2014-03-17T08:23:47Z</time>
      </trkpt>
      <trkpt lat="68.66569" lon="27.51882">
        <ele>130.395996</ele>
        <time>2014-03-17T08:24:08Z</time>
      </trkpt>
      <trkpt lat="68.66568" lon="27.5188">
        <ele>130.876709</ele>
        <time>2014-03-17T08:24:57Z</time>
      </trkpt>
      <trkpt lat="68.6657" lon="27.51884">
        <ele>130.876709</ele>
        <time>2014-03-17T08:25:25Z</time>
      </trkpt>
      <trkpt lat="68.66572" lon="27.51893">
        <ele>130.876709</ele>
        <time>2014-03-17T08:25:42Z</time>
      </trkpt>
      <trkpt lat="68.66568" lon="27.51874">
        <ele>130.876709</ele>
        <time>2014-03-17T08:25:58Z</time>
      </trkpt>
      <trkpt lat="68.66556" lon="27.51848">
        <ele>130.395996</ele>
        <time>2014-03-17T08:26:19Z</time>
      </trkpt>
      <trkpt lat="68.66548" lon="27.51837">
        <ele>130.395996</ele>
        <time>2014-03-17T08:26:38Z</time>
      </trkpt>
      <trkpt lat="68.66513" lon="27.51821">
        <ele>129.915283</ele>
        <time>2014-03-17T08:27:02Z</time>
      </trkpt>
      <trkpt lat="68.66486" lon="27.51818">
        <ele>129.915283</ele>
        <time>2014-03-17T08:27:21Z</time>
      </trkpt>
      <trkpt lat="68.66461" lon="27.51802">
        <ele>130.395996</ele>
        <time>2014-03-17T08:27:39Z</time>
      </trkpt>
      <trkpt lat="68.66431" lon="27.51771">
        <ele>132.318604</ele>
        <time>2014-03-17T08:28:02Z</time>
      </trkpt>
      <trkpt lat="68.66404" lon="27.51771">
        <ele>133.279907</ele>
        <time>2014-03-17T08:28:20Z</time>
      </trkpt>
      <trkpt lat="68.66378" lon="27.51775">
        <ele>132.799316</ele>
        <time>2014-03-17T08:28:38Z</time>
      </trkpt>
      <trkpt lat="68.66371" lon="27.51769">
        <ele>133.279907</ele>
        <time>2014-03-17T08:28:55Z</time>
      </trkpt>
      <trkpt lat="68.66367" lon="27.51761">
        <ele>132.799316</ele>
        <time>2014-03-17T08:29:38Z</time>
      </trkpt>
      <trkpt lat="68.66355" lon="27.51684">
        <ele>132.799316</ele>
        <time>2014-03-17T08:29:59Z</time>
      </trkpt>
      <trkpt lat="68.66335" lon="27.51597">
        <ele>131.837891</ele>
        <time>2014-03-17T08:30:22Z</time>
      </trkpt>
      <trkpt lat="68.6632" lon="27.51523">
        <ele>130.395996</ele>
        <time>2014-03-17T08:30:41Z</time>
      </trkpt>
      <trkpt lat="68.66324" lon="27.51438">
        <ele>128.954102</ele>
        <time>2014-03-17T08:30:57Z</time>
      </trkpt>
      <trkpt lat="68.66324" lon="27.51401">
        <ele>130.395996</ele>
        <time>2014-03-17T08:31:09Z</time>
      </trkpt>
      <trkpt lat="68.6632" lon="27.51393">
        <ele>129.434692</ele>
        <time>2014-03-17T08:31:14Z</time>
      </trkpt>
      <trkpt lat="68.66285" lon="27.51369">
        <ele>129.434692</ele>
        <time>2014-03-17T08:31:37Z</time>
      </trkpt>
      <trkpt lat="68.66252" lon="27.51338">
        <ele>129.915283</ele>
        <time>2014-03-17T08:31:59Z</time>
      </trkpt>
      <trkpt lat="68.66231" lon="27.51334">
        <ele>130.395996</ele>
        <time>2014-03-17T08:32:18Z</time>
      </trkpt>
      <trkpt lat="68.66223" lon="27.51338">
        <ele>130.395996</ele>
        <time>2014-03-17T08:32:37Z</time>
      </trkpt>
      <trkpt lat="68.66199" lon="27.51355">
        <ele>130.395996</ele>
        <time>2014-03-17T08:32:56Z</time>
      </trkpt>
      <trkpt lat="68.66165" lon="27.51357">
        <ele>130.876709</ele>
        <time>2014-03-17T08:33:19Z</time>
      </trkpt>
      <trkpt lat="68.66149" lon="27.51357">
        <ele>129.915283</ele>
        <time>2014-03-17T08:33:37Z</time>
      </trkpt>
      <trkpt lat="68.66139" lon="27.5135">
        <ele>129.915283</ele>
        <time>2014-03-17T08:34:01Z</time>
      </trkpt>
      <trkpt lat="68.66112" lon="27.51363">
        <ele>129.915283</ele>
        <time>2014-03-17T08:34:22Z</time>
      </trkpt>
      <trkpt lat="68.66085" lon="27.51369">
        <ele>130.395996</ele>
        <time>2014-03-17T08:34:43Z</time>
      </trkpt>
      <trkpt lat="68.66051" lon="27.51377">
        <ele>129.915283</ele>
        <time>2014-03-17T08:35:07Z</time>
      </trkpt>
      <trkpt lat="68.66043" lon="27.51387">
        <ele>129.915283</ele>
        <time>2014-03-17T08:35:21Z</time>
      </trkpt>
      <trkpt lat="68.66025" lon="27.51395">
        <ele>129.915283</ele>
        <time>2014-03-17T08:35:35Z</time>
      </trkpt>
      <trkpt lat="68.65993" lon="27.51405">
        <ele>129.434692</ele>
        <time>2014-03-17T08:35:56Z</time>
      </trkpt>
      <trkpt lat="68.65957" lon="27.51414">
        <ele>128.954102</ele>
        <time>2014-03-17T08:36:18Z</time>
      </trkpt>
      <trkpt lat="68.65922" lon="27.51416">
        <ele>128.954102</ele>
        <time>2014-03-17T08:36:41Z</time>
      </trkpt>
      <trkpt lat="68.65888" lon="27.51424">
        <ele>128.473389</ele>
        <time>2014-03-17T08:37:02Z</time>
      </trkpt>
      <trkpt lat="68.65875" lon="27.5143">
        <ele>128.954102</ele>
        <time>2014-03-17T08:37:19Z</time>
      </trkpt>
      <trkpt lat="68.65871" lon="27.51435">
        <ele>128.473389</ele>
        <time>2014-03-17T08:37:35Z</time>
      </trkpt>
      <trkpt lat="68.65847" lon="27.51435">
        <ele>128.473389</ele>
        <time>2014-03-17T08:37:53Z</time>
      </trkpt>
      <trkpt lat="68.65809" lon="27.51438">
        <ele>128.954102</ele>
        <time>2014-03-17T08:38:17Z</time>
      </trkpt>
      <trkpt lat="68.65789" lon="27.51483">
        <ele>128.954102</ele>
        <time>2014-03-17T08:38:38Z</time>
      </trkpt>
      <trkpt lat="68.65781" lon="27.51532">
        <ele>128.473389</ele>
        <time>2014-03-17T08:38:56Z</time>
      </trkpt>
      <trkpt lat="68.65757" lon="27.51606">
        <ele>128.473389</ele>
        <time>2014-03-17T08:39:19Z</time>
      </trkpt>
      <trkpt lat="68.65745" lon="27.51652">
        <ele>129.915283</ele>
        <time>2014-03-17T08:39:41Z</time>
      </trkpt>
      <trkpt lat="68.6574" lon="27.51675">
        <ele>130.395996</ele>
        <time>2014-03-17T08:40:00Z</time>
      </trkpt>
      <trkpt lat="68.6574" lon="27.51678">
        <ele>131.3573</ele>
        <time>2014-03-17T08:40:07Z</time>
      </trkpt>
      <trkpt lat="68.65739" lon="27.51679">
        <ele>127.031372</ele>
        <time>2014-03-17T08:40:12Z</time>
      </trkpt>
      <trkpt lat="68.65739" lon="27.51679">
        <ele>132.318604</ele>
        <time>2014-03-17T08:40:16Z</time>
      </trkpt>
      <trkpt lat="68.65739" lon="27.51679">
        <ele>128.954102</ele>
        <time>2014-03-17T08:40:17Z</time>
      </trkpt>
      <trkpt lat="68.65739" lon="27.51681">
        <ele>130.395996</ele>
        <time>2014-03-17T08:40:20Z</time>
      </trkpt>
      <trkpt lat="68.65741" lon="27.5171">
        <ele>127.992554</ele>
        <time>2014-03-17T08:40:36Z</time>
      </trkpt>
      <trkpt lat="68.65739" lon="27.51733">
        <ele>127.031372</ele>
        <time>2014-03-17T08:41:00Z</time>
      </trkpt>
      <trkpt lat="68.65738" lon="27.51734">
        <ele>127.031372</ele>
        <time>2014-03-17T08:41:11Z</time>
      </trkpt>
      <trkpt lat="68.65738" lon="27.51734">
        <ele>123.186157</ele>
        <time>2014-03-17T08:41:19Z</time>
      </trkpt>
      <trkpt lat="68.65738" lon="27.51734">
        <ele>127.031372</ele>
        <time>2014-03-17T08:41:21Z</time>
      </trkpt>
      <trkpt lat="68.65738" lon="27.51734">
        <ele>127.031372</ele>
        <time>2014-03-17T08:41:22Z</time>
      </trkpt>
      <trkpt lat="68.65738" lon="27.51734">
        <ele>123.666748</ele>
        <time>2014-03-17T08:41:26Z</time>
      </trkpt>
      <trkpt lat="68.65738" lon="27.51735">
        <ele>127.992554</ele>
        <time>2014-03-17T08:41:29Z</time>
      </trkpt>
      <trkpt lat="68.65737" lon="27.51739">
        <ele>125.589355</ele>
        <time>2014-03-17T08:41:50Z</time>
      </trkpt>
      <trkpt lat="68.65735" lon="27.51734">
        <ele>125.589355</ele>
        <time>2014-03-17T08:42:25Z</time>
      </trkpt>
      <trkpt lat="68.65735" lon="27.51732">
        <ele>122.705444</ele>
        <time>2014-03-17T08:42:32Z</time>
      </trkpt>
      <trkpt lat="68.65735" lon="27.51731">
        <ele>125.589355</ele>
        <time>2014-03-17T08:42:33Z</time>
      </trkpt>
      <trkpt lat="68.65734" lon="27.51728">
        <ele>127.031372</ele>
        <time>2014-03-17T08:42:39Z</time>
      </trkpt>
      <trkpt lat="68.65728" lon="27.51747">
        <ele>124.628052</ele>
        <time>2014-03-17T08:43:07Z</time>
      </trkpt>
      <trkpt lat="68.65706" lon="27.51812">
        <ele>124.628052</ele>
        <time>2014-03-17T08:43:30Z</time>
      </trkpt>
      <trkpt lat="68.65687" lon="27.51867">
        <ele>125.108765</ele>
        <time>2014-03-17T08:43:49Z</time>
      </trkpt>
      <trkpt lat="68.65668" lon="27.51921">
        <ele>125.589355</ele>
        <time>2014-03-17T08:44:10Z</time>
      </trkpt>
      <trkpt lat="68.6565" lon="27.51972">
        <ele>125.108765</ele>
        <time>2014-03-17T08:44:30Z</time>
      </trkpt>
      <trkpt lat="68.65627" lon="27.52035">
        <ele>125.108765</ele>
        <time>2014-03-17T08:44:54Z</time>
      </trkpt>
      <trkpt lat="68.65626" lon="27.5204">
        <ele>125.108765</ele>
        <time>2014-03-17T08:45:14Z</time>
      </trkpt>
      <trkpt lat="68.65615" lon="27.52054">
        <ele>125.108765</ele>
        <time>2014-03-17T08:45:30Z</time>
      </trkpt>
      <trkpt lat="68.65589" lon="27.52091">
        <ele>125.589355</ele>
        <time>2014-03-17T08:45:55Z</time>
      </trkpt>
      <trkpt lat="68.65572" lon="27.52123">
        <ele>125.108765</ele>
        <time>2014-03-17T08:46:13Z</time>
      </trkpt>
      <trkpt lat="68.65554" lon="27.52156">
        <ele>125.589355</ele>
        <time>2014-03-17T08:46:32Z</time>
      </trkpt>
      <trkpt lat="68.65532" lon="27.52199">
        <ele>125.589355</ele>
        <time>2014-03-17T08:46:53Z</time>
      </trkpt>
      <trkpt lat="68.65516" lon="27.52238">
        <ele>125.108765</ele>
        <time>2014-03-17T08:47:11Z</time>
      </trkpt>
      <trkpt lat="68.65499" lon="27.52294">
        <ele>126.069946</ele>
        <time>2014-03-17T08:47:33Z</time>
      </trkpt>
      <trkpt lat="68.65481" lon="27.52358">
        <ele>125.589355</ele>
        <time>2014-03-17T08:47:57Z</time>
      </trkpt>
      <trkpt lat="68.65469" lon="27.52397">
        <ele>125.589355</ele>
        <time>2014-03-17T08:48:17Z</time>
      </trkpt>
      <trkpt lat="68.65453" lon="27.52452">
        <ele>125.589355</ele>
        <time>2014-03-17T08:48:38Z</time>
      </trkpt>
      <trkpt lat="68.6544" lon="27.52502">
        <ele>126.069946</ele>
        <time>2014-03-17T08:49:00Z</time>
      </trkpt>
      <trkpt lat="68.65426" lon="27.52553">
        <ele>126.069946</ele>
        <time>2014-03-17T08:49:17Z</time>
      </trkpt>
      <trkpt lat="68.65405" lon="27.52626">
        <ele>125.589355</ele>
        <time>2014-03-17T08:49:42Z</time>
      </trkpt>
      <trkpt lat="68.65388" lon="27.52685">
        <ele>125.589355</ele>
        <time>2014-03-17T08:50:04Z</time>
      </trkpt>
      <trkpt lat="68.65367" lon="27.52754">
        <ele>126.069946</ele>
        <time>2014-03-17T08:50:28Z</time>
      </trkpt>
      <trkpt lat="68.65352" lon="27.52807">
        <ele>126.069946</ele>
        <time>2014-03-17T08:50:47Z</time>
      </trkpt>
      <trkpt lat="68.65333" lon="27.52877">
        <ele>125.589355</ele>
        <time>2014-03-17T08:51:11Z</time>
      </trkpt>
      <trkpt lat="68.65318" lon="27.52937">
        <ele>126.069946</ele>
        <time>2014-03-17T08:51:32Z</time>
      </trkpt>
      <trkpt lat="68.6531" lon="27.52958">
        <ele>126.069946</ele>
        <time>2014-03-17T08:51:51Z</time>
      </trkpt>
      <trkpt lat="68.653" lon="27.52958">
        <ele>126.550659</ele>
        <time>2014-03-17T08:52:12Z</time>
      </trkpt>
      <trkpt lat="68.65289" lon="27.52999">
        <ele>126.069946</ele>
        <time>2014-03-17T08:52:28Z</time>
      </trkpt>
      <trkpt lat="68.65284" lon="27.53008">
        <ele>126.069946</ele>
        <time>2014-03-17T08:52:34Z</time>
      </trkpt>
      <trkpt lat="68.65276" lon="27.53013">
        <ele>126.069946</ele>
        <time>2014-03-17T08:52:46Z</time>
      </trkpt>
      <trkpt lat="68.65259" lon="27.53082">
        <ele>126.550659</ele>
        <time>2014-03-17T08:53:11Z</time>
      </trkpt>
      <trkpt lat="68.6525" lon="27.53101">
        <ele>126.069946</ele>
        <time>2014-03-17T08:53:28Z</time>
      </trkpt>
      <trkpt lat="68.65238" lon="27.53158">
        <ele>126.069946</ele>
        <time>2014-03-17T08:53:50Z</time>
      </trkpt>
      <trkpt lat="68.65229" lon="27.53198">
        <ele>126.550659</ele>
        <time>2014-03-17T08:54:06Z</time>
      </trkpt>
      <trkpt lat="68.65228" lon="27.53207">
        <ele>126.069946</ele>
        <time>2014-03-17T08:54:10Z</time>
      </trkpt>
      <trkpt lat="68.65215" lon="27.53274">
        <ele>125.589355</ele>
        <time>2014-03-17T08:54:33Z</time>
      </trkpt>
      <trkpt lat="68.65197" lon="27.53344">
        <ele>126.069946</ele>
        <time>2014-03-17T08:54:57Z</time>
      </trkpt>
      <trkpt lat="68.6518" lon="27.53412">
        <ele>125.589355</ele>
        <time>2014-03-17T08:55:20Z</time>
      </trkpt>
      <trkpt lat="68.65161" lon="27.53483">
        <ele>126.069946</ele>
        <time>2014-03-17T08:55:46Z</time>
      </trkpt>
      <trkpt lat="68.65144" lon="27.53536">
        <ele>125.108765</ele>
        <time>2014-03-17T08:56:07Z</time>
      </trkpt>
      <trkpt lat="68.6513" lon="27.53589">
        <ele>125.589355</ele>
        <time>2014-03-17T08:56:27Z</time>
      </trkpt>
      <trkpt lat="68.65107" lon="27.53654">
        <ele>125.589355</ele>
        <time>2014-03-17T08:56:52Z</time>
      </trkpt>
      <trkpt lat="68.65096" lon="27.53689">
        <ele>125.108765</ele>
        <time>2014-03-17T08:57:11Z</time>
      </trkpt>
      <trkpt lat="68.65082" lon="27.53725">
        <ele>124.628052</ele>
        <time>2014-03-17T08:57:29Z</time>
      </trkpt>
      <trkpt lat="68.6508" lon="27.53734">
        <ele>124.628052</ele>
        <time>2014-03-17T08:58:36Z</time>
      </trkpt>
      <trkpt lat="68.65055" lon="27.53783">
        <ele>124.628052</ele>
        <time>2014-03-17T08:58:58Z</time>
      </trkpt>
      <trkpt lat="68.65033" lon="27.53834">
        <ele>125.108765</ele>
        <time>2014-03-17T08:59:19Z</time>
      </trkpt>
      <trkpt lat="68.65007" lon="27.53883">
        <ele>124.628052</ele>
        <time>2014-03-17T08:59:42Z</time>
      </trkpt>
      <trkpt lat="68.64985" lon="27.53929">
        <ele>124.628052</ele>
        <time>2014-03-17T09:00:03Z</time>
      </trkpt>
      <trkpt lat="68.6496" lon="27.53975">
        <ele>124.628052</ele>
        <time>2014-03-17T09:00:24Z</time>
      </trkpt>
      <trkpt lat="68.64936" lon="27.54034">
        <ele>124.628052</ele>
        <time>2014-03-17T09:00:48Z</time>
      </trkpt>
      <trkpt lat="68.64927" lon="27.54084">
        <ele>125.108765</ele>
        <time>2014-03-17T09:01:07Z</time>
      </trkpt>
      <trkpt lat="68.64927" lon="27.5409">
        <ele>124.628052</ele>
        <time>2014-03-17T09:01:20Z</time>
      </trkpt>
      <trkpt lat="68.64927" lon="27.54102">
        <ele>126.069946</ele>
        <time>2014-03-17T09:01:41Z</time>
      </trkpt>
      <trkpt lat="68.6493" lon="27.54127">
        <ele>129.434692</ele>
        <time>2014-03-17T09:01:54Z</time>
      </trkpt>
      <trkpt lat="68.64935" lon="27.54153">
        <ele>130.395996</ele>
        <time>2014-03-17T09:02:07Z</time>
      </trkpt>
      <trkpt lat="68.64953" lon="27.54192">
        <ele>130.395996</ele>
        <time>2014-03-17T09:02:28Z</time>
      </trkpt>
      <trkpt lat="68.6496" lon="27.54208">
        <ele>130.395996</ele>
        <time>2014-03-17T09:02:47Z</time>
      </trkpt>
      <trkpt lat="68.64951" lon="27.54199">
        <ele>131.837891</ele>
        <time>2014-03-17T09:03:06Z</time>
      </trkpt>
      <trkpt lat="68.64949" lon="27.54198">
        <ele>130.395996</ele>
        <time>2014-03-17T09:03:11Z</time>
      </trkpt>
    </trkseg>
  </trk>
</gpx>